Time;durP1;ratioP1;P1;durP2;ratioP2;P2;SDS_P1;SDS_P2;PMS_P1;PMS_P2;Temp;Humidity;BMP_temperature;BMP_pressure;BME280_temperature;BME280_humidity;BME280_pressure;Samples;Min_cycle;Max_cycle;Signal;HPM_P1;HPM_P2
2022/05/17 00:02:05;;;;;;;8.57;4.63;;;;;;;12.97;100.00;95960.78;5053616;28;20052;-76
2022/05/17 00:04:32;;;;;;;6.85;4.18;;;;;;;12.99;100.00;95962.09;5053384;28;20045;-75
2022/05/17 00:06:58;;;;;;;13.88;4.53;;;;;;;12.95;100.00;95968.97;5057841;28;20040;-76
2022/05/17 00:09:24;;;;;;;10.57;4.60;;;;;;;12.96;100.00;95960.00;5067687;28;20421;-75
2022/05/17 00:11:49;;;;;;;9.50;4.72;;;;;;;12.93;100.00;95965.81;5069265;28;20040;-76
2022/05/17 00:14:17;;;;;;;11.88;5.43;;;;;;;13.03;100.00;95967.63;5070921;28;20162;-76
2022/05/17 00:16:44;;;;;;;11.65;4.40;;;;;;;12.99;100.00;95964.72;5051788;28;20040;-76
2022/05/17 00:19:11;;;;;;;12.73;4.35;;;;;;;12.93;100.00;95960.53;5053071;28;20463;-76
2022/05/17 00:21:38;;;;;;;11.43;4.65;;;;;;;13.02;100.00;95962.63;5051381;28;20490;-76
2022/05/17 00:24:06;;;;;;;10.20;5.60;;;;;;;12.93;100.00;95963.19;5071478;28;20052;-76
2022/05/17 00:26:34;;;;;;;10.15;5.15;;;;;;;13.09;100.00;95973.69;5071556;28;20044;-76
2022/05/17 00:29:01;;;;;;;11.40;5.20;;;;;;;12.94;100.00;95972.69;5061375;28;20086;-77
2022/05/17 00:31:26;;;;;;;9.57;4.63;;;;;;;12.99;100.00;95964.72;5051916;28;20068;-76
2022/05/17 00:33:53;;;;;;;13.60;4.82;;;;;;;12.96;100.00;95953.94;5050541;28;20075;-76
2022/05/17 00:36:20;;;;;;;12.18;5.05;;;;;;;12.90;100.00;95966.38;5053631;28;20064;-76
2022/05/17 00:38:45;;;;;;;14.02;4.82;;;;;;;13.00;100.00;95958.38;5063591;28;20453;-76
2022/05/17 00:41:11;;;;;;;11.13;5.15;;;;;;;13.03;100.00;95958.91;5051630;28;20045;-76
2022/05/17 00:46:39;;;;;;;11.73;5.72;;;;;;;12.93;100.00;95965.81;5058269;28;20045;-76
2022/05/17 00:49:09;;;;;;;12.75;5.22;;;;;;;13.03;100.00;95958.91;5049939;28;20048;-75
2022/05/17 00:51:34;;;;;;;15.88;5.88;;;;;;;13.00;100.00;95961.03;5052457;28;20041;-76
2022/05/17 00:54:05;;;;;;;17.52;6.88;;;;;;;13.11;100.00;95955.69;5051405;28;20410;-76
2022/05/17 00:56:33;;;;;;;14.15;5.38;;;;;;;13.04;100.00;95960.47;5053341;28;20097;-76
2022/05/17 00:59:02;;;;;;;11.00;5.82;;;;;;;13.03;100.00;95958.91;5051052;28;20048;-76
2022/05/17 01:01:31;;;;;;;13.25;5.35;;;;;;;12.98;100.00;95955.22;5053748;28;20037;-76
2022/05/17 01:04:03;;;;;;;12.18;5.70;;;;;;;13.05;100.00;95956.78;5049844;28;20045;-76
2022/05/17 01:06:37;;;;;;;15.88;5.63;;;;;;;13.11;100.00;95958.31;5052251;28;20111;-76
2022/05/17 01:09:03;;;;;;;12.02;5.55;;;;;;;13.08;100.00;95961.50;5050528;28;20040;-76
2022/05/17 01:11:29;;;;;;;21.98;5.68;;;;;;;13.03;100.00;95956.25;5051022;28;20093;-76
2022/05/17 01:16:39;;;;;;;18.42;5.68;;;;;;;13.20;100.00;95959.31;5052136;28;20052;-76
2022/05/17 01:19:07;;;;;;;15.95;5.30;;;;;;;13.08;100.00;95950.94;5051874;28;20041;-76
2022/05/17 01:21:33;;;;;;;11.90;5.38;;;;;;;13.11;100.00;95955.69;5050605;28;20033;-76
2022/05/17 01:23:59;;;;;;;9.75;4.95;;;;;;;12.99;100.00;95954.16;5069930;28;20071;-76
2022/05/17 01:26:28;;;;;;;12.70;5.47;;;;;;;13.04;100.00;95955.19;5069083;28;20049;-76
2022/05/17 01:28:54;;;;;;;17.20;6.20;;;;;;;13.03;100.00;95953.59;5053603;28;20049;-76
2022/05/17 01:31:21;;;;;;;14.27;5.95;;;;;;;13.03;100.00;95953.59;5055314;28;20036;-76
2022/05/17 01:33:47;;;;;;;10.88;5.57;;;;;;;13.02;100.00;95958.13;5077519;28;20151;-76
2022/05/17 01:36:15;;;;;;;12.32;5.50;;;;;;;12.92;100.00;95953.69;5068573;28;20116;-76
2022/05/17 01:38:45;;;;;;;13.20;5.30;;;;;;;12.87;100.00;95951.06;5068532;28;20044;-76
2022/05/17 01:41:11;;;;;;;11.93;5.43;;;;;;;12.84;100.00;95954.25;5058693;28;20033;-76
2022/05/17 01:43:37;;;;;;;15.90;5.25;;;;;;;12.74;100.00;95954.28;5049877;28;20056;-75
2022/05/17 01:46:08;;;;;;;15.30;5.55;;;;;;;12.81;100.00;95954.78;5050332;28;20060;-76
2022/05/17 01:48:35;;;;;;;12.52;4.95;;;;;;;12.86;100.00;95949.50;5050690;28;20048;-76
2022/05/17 01:51:00;;;;;;;11.57;5.38;;;;;;;12.81;100.00;95952.97;5064497;28;20047;-76
2022/05/17 01:53:26;;;;;;;12.75;5.68;;;;;;;12.77;100.00;95951.09;5069830;28;20052;-76
2022/05/17 01:55:52;;;;;;;16.75;5.63;;;;;;;12.57;100.00;95955.44;5070148;28;20102;-76
2022/05/17 01:58:17;;;;;;;13.45;5.80;;;;;;;12.51;100.00;95942.53;5051952;28;20679;-76
2022/05/17 02:00:45;;;;;;;10.27;5.47;;;;;;;12.47;100.00;95944.94;5061596;28;20125;-75
2022/05/17 02:03:10;;;;;;;11.18;5.28;;;;;;;12.51;100.00;95945.94;5060221;28;20040;-76
2022/05/17 02:05:36;;;;;;;15.45;5.78;;;;;;;12.48;100.00;95938.56;5066609;28;20040;-76
2022/05/17 02:08:02;;;;;;;9.98;5.50;;;;;;;12.61;100.00;95948.56;5063790;28;20040;-76
2022/05/17 02:10:27;;;;;;;9.30;4.82;;;;;;;12.57;100.00;95941.44;5050607;28;20049;-76
2022/05/17 02:12:54;;;;;;;9.35;4.97;;;;;;;12.59;100.00;95945.38;5049782;28;20083;-76
2022/05/17 02:15:20;;;;;;;12.23;6.28;;;;;;;12.59;100.00;95940.09;5049846;28;20482;-76
2022/05/17 02:17:46;;;;;;;13.75;5.28;;;;;;;12.63;100.00;95946.44;5063645;28;20044;-76
2022/05/17 02:20:11;;;;;;;14.57;5.00;;;;;;;12.74;100.00;95936.63;5067410;28;20044;-76
2022/05/17 02:22:37;;;;;;;13.07;5.47;;;;;;;12.79;100.00;95943.72;5065159;28;20051;-76
2022/05/17 02:25:03;;;;;;;12.20;5.80;;;;;;;12.75;100.00;95942.69;5059371;28;20103;-76
2022/05/17 02:27:29;;;;;;;13.85;5.25;;;;;;;12.74;100.00;95935.81;5049371;28;20041;-76
2022/05/17 02:29:55;;;;;;;11.40;5.03;;;;;;;12.77;100.00;95943.19;5049925;28;20095;-76
2022/05/17 02:32:21;;;;;;;12.38;5.35;;;;;;;12.79;100.00;95943.72;5049613;28;20068;-76
2022/05/17 02:34:47;;;;;;;13.63;5.40;;;;;;;12.78;100.00;95947.41;5053476;28;20071;-76
2022/05/17 02:37:15;;;;;;;12.57;5.95;;;;;;;12.64;100.00;95948.03;5069087;28;20059;-76
2022/05/17 02:39:42;;;;;;;11.95;5.40;;;;;;;12.60;100.00;95952.25;5056262;28;20033;-76
2022/05/17 02:42:09;;;;;;;11.80;5.63;;;;;;;12.63;100.00;95957.00;5050296;28;20037;-76
2022/05/17 02:44:35;;;;;;;11.77;5.75;;;;;;;12.59;100.00;95955.94;5059205;28;20033;-76
2022/05/17 02:47:01;;;;;;;11.00;5.22;;;;;;;12.58;100.00;95954.34;5068992;28;20476;-76
2022/05/17 02:49:27;;;;;;;13.93;5.65;;;;;;;12.68;100.00;95952.75;5055211;28;20037;-76
2022/05/17 02:51:54;;;;;;;13.98;6.00;;;;;;;12.45;100.00;95950.44;5052111;28;20041;-76
2022/05/17 02:54:23;;;;;;;10.88;5.82;;;;;;;12.43;100.00;95957.09;5069289;28;20107;-76
2022/05/17 02:56:49;;;;;;;11.55;5.80;;;;;;;12.41;100.00;95964.47;5062224;28;20049;-76
2022/05/17 02:59:18;;;;;;;12.68;6.13;;;;;;;12.37;100.00;95963.41;5047584;28;20041;-76
2022/05/17 03:01:44;;;;;;;11.75;5.30;;;;;;;12.40;100.00;95968.19;5059393;28;20048;-76
2022/05/17 03:04:12;;;;;;;15.50;6.88;;;;;;;12.40;100.00;95965.53;5067668;28;20459;-76
2022/05/17 03:06:38;;;;;;;13.13;5.60;;;;;;;12.23;100.00;95969.28;5067075;28;20576;-76
2022/05/17 03:09:04;;;;;;;13.60;6.15;;;;;;;12.33;100.00;95967.69;5068719;28;20070;-76
2022/05/17 03:11:30;;;;;;;10.00;5.75;;;;;;;12.28;100.00;95971.91;5067890;28;20060;-76
2022/05/17 03:13:55;;;;;;;19.17;5.68;;;;;;;12.21;100.00;95966.13;5065755;28;20040;-76
2022/05/17 03:16:27;;;;;;;12.48;6.20;;;;;;;12.15;100.00;95969.81;5065106;28;20033;-76
2022/05/17 03:18:52;;;;;;;15.43;5.82;;;;;;;12.23;100.00;95974.56;5051291;28;20442;-76
2022/05/17 03:21:18;;;;;;;10.75;5.53;;;;;;;12.11;100.00;95971.41;5052627;28;20070;-76
2022/05/17 03:23:43;;;;;;;12.50;5.88;;;;;;;12.09;100.00;95968.25;5052144;28;20041;-76
2022/05/17 03:26:08;;;;;;;16.08;6.15;;;;;;;12.00;100.00;95969.88;5052754;28;20041;-76
2022/05/17 03:28:34;;;;;;;13.30;6.13;;;;;;;11.87;100.00;95974.59;5060422;28;20049;-76
2022/05/17 03:31:00;;;;;;;10.57;5.97;;;;;;;11.94;100.00;95972.50;5051081;28;20044;-76
2022/05/17 03:33:25;;;;;;;11.07;6.18;;;;;;;11.95;100.00;95974.09;5051092;28;20068;-75
2022/05/17 03:35:51;;;;;;;10.57;5.97;;;;;;;11.80;100.00;95981.97;5051563;28;20568;-76
2022/05/17 03:38:16;;;;;;;11.95;6.75;;;;;;;11.69;100.00;95983.81;5052035;28;20052;-76
2022/05/17 03:40:42;;;;;;;17.63;6.18;;;;;;;11.74;100.00;95983.06;5052847;28;20556;-76
2022/05/17 03:43:07;;;;;;;12.48;5.72;;;;;;;11.79;100.00;95985.66;5052879;28;20091;-76
2022/05/17 03:45:33;;;;;;;15.60;6.75;;;;;;;11.83;100.00;95981.44;5053707;28;20056;-76
2022/05/17 03:47:58;;;;;;;12.23;6.68;;;;;;;11.70;100.00;95982.00;5070752;28;20116;-76
2022/05/17 03:50:24;;;;;;;15.02;6.88;;;;;;;11.59;100.00;95984.63;5056346;28;20130;-76
2022/05/17 03:52:49;;;;;;;15.55;8.02;;;;;;;11.69;100.00;95985.69;5052504;28;20049;-76
2022/05/17 03:55:16;;;;;;;15.10;6.50;;;;;;;11.70;100.00;95987.25;5053622;28;20041;-76
2022/05/17 03:57:41;;;;;;;11.65;6.35;;;;;;;11.72;100.00;95980.69;5052139;28;20037;-76
2022/05/17 04:00:08;;;;;;;15.65;6.60;;;;;;;11.74;100.00;95993.59;5051736;28;20052;-76
2022/05/17 04:02:37;;;;;;;12.45;5.75;;;;;;;11.72;100.00;95985.13;5054650;28;20094;-76
2022/05/17 04:05:03;;;;;;;14.38;6.00;;;;;;;11.75;100.00;95995.16;5070656;28;20041;-76
2022/05/17 04:07:29;;;;;;;18.15;6.57;;;;;;;11.77;100.00;95993.06;5071088;28;20102;-76
2022/05/17 04:09:55;;;;;;;15.40;6.60;;;;;;;11.76;100.00;95999.38;5051854;28;20765;-76
2022/05/17 04:12:20;;;;;;;14.88;6.40;;;;;;;11.70;100.00;96000.44;5052142;28;20049;-76
2022/05/17 04:14:46;;;;;;;15.23;7.57;;;;;;;11.69;100.00;96001.50;5052130;28;20045;-75
2022/05/17 04:17:11;;;;;;;9.73;5.68;;;;;;;11.77;100.00;96000.97;5052430;28;20048;-76
2022/05/17 04:19:37;;;;;;;13.57;6.68;;;;;;;11.72;100.00;96011.50;5052762;28;20449;-76
2022/05/17 04:22:09;;;;;;;13.75;6.47;;;;;;;11.71;100.00;96004.66;5060727;28;20053;-76
2022/05/17 04:24:35;;;;;;;18.42;6.97;;;;;;;11.75;100.00;96006.50;5063549;28;20064;-75
2022/05/17 04:27:01;;;;;;;18.42;6.38;;;;;;;11.75;100.00;96003.88;5069401;28;20162;-76
2022/05/17 04:29:26;;;;;;;14.10;6.63;;;;;;;11.70;100.00;96003.88;5070751;28;20045;-76
2022/05/17 04:31:52;;;;;;;16.35;6.30;;;;;;;11.84;100.00;96009.41;5054992;28;20072;-76
2022/05/17 04:34:17;;;;;;;12.20;6.43;;;;;;;11.80;100.00;96013.63;5051860;28;20045;-76
2022/05/17 04:36:43;;;;;;;9.68;5.72;;;;;;;11.82;100.00;96002.81;5070189;28;20045;-76
2022/05/17 04:39:08;;;;;;;15.50;6.07;;;;;;;11.82;100.00;96014.13;5069808;28;20085;-76
2022/05/17 04:41:34;;;;;;;9.88;6.15;;;;;;;11.86;100.00;96015.19;5055901;28;20036;-76
2022/05/17 04:44:00;;;;;;;13.60;6.22;;;;;;;11.90;100.00;96010.97;5051591;28;20072;-76
2022/05/17 04:46:25;;;;;;;13.15;6.18;;;;;;;12.04;100.00;96013.09;5050299;28;20383;-75
2022/05/17 04:48:51;;;;;;;12.93;6.30;;;;;;;12.07;100.00;96017.88;5052415;28;20063;-76
2022/05/17 04:51:16;;;;;;;13.00;6.25;;;;;;;11.98;100.00;96014.16;5051335;28;20110;-76
2022/05/17 04:53:42;;;;;;;11.68;5.78;;;;;;;11.96;100.00;96023.13;5067329;28;20054;-76
2022/05/17 04:56:08;;;;;;;13.77;6.43;;;;;;;12.05;100.00;96019.97;5054320;28;20049;-76
2022/05/17 04:58:35;;;;;;;13.18;6.30;;;;;;;12.08;100.00;96035.25;5055716;28;20090;-76
2022/05/17 05:01:01;;;;;;;12.82;6.72;;;;;;;12.10;100.00;96027.88;5052502;28;20045;-76
2022/05/17 05:03:28;;;;;;;11.57;5.90;;;;;;;12.05;100.00;96031.31;5051498;28;20499;-76
2022/05/17 05:05:53;;;;;;;12.15;5.85;;;;;;;12.04;100.00;96026.28;5051232;28;20040;-76
2022/05/17 05:08:19;;;;;;;12.43;6.07;;;;;;;12.02;100.00;96025.78;5049879;28;20037;-76
2022/05/17 05:10:45;;;;;;;13.93;6.07;;;;;;;12.04;100.00;96040.28;5057503;28;20047;-76
2022/05/17 05:13:14;;;;;;;12.25;6.18;;;;;;;12.12;100.00;96044.22;5051272;28;20411;-76
2022/05/17 05:15:40;;;;;;;14.57;6.13;;;;;;;12.20;100.00;96046.34;5052262;28;20099;-76
2022/05/17 05:18:06;;;;;;;12.85;6.05;;;;;;;12.23;100.00;96043.16;5061662;28;20518;-76
2022/05/17 05:20:31;;;;;;;13.75;6.22;;;;;;;12.27;100.00;96041.56;5049616;28;20045;-76
2022/05/17 05:22:56;;;;;;;15.15;6.07;;;;;;;12.30;100.00;96046.31;5063198;28;20055;-76
2022/05/17 05:25:22;;;;;;;14.65;5.90;;;;;;;12.34;100.00;96048.41;5051054;28;20049;-76
2022/05/17 05:27:48;;;;;;;14.80;6.25;;;;;;;12.26;100.00;96042.63;5049426;28;20045;-76
2022/05/17 05:30:15;;;;;;;11.90;6.40;;;;;;;12.27;100.00;96049.50;5066640;28;20119;-76
2022/05/17 05:32:41;;;;;;;11.32;6.10;;;;;;;12.21;100.00;96055.84;5069143;28;20040;-76
2022/05/17 05:35:07;;;;;;;13.95;6.65;;;;;;;12.27;100.00;96044.22;5067901;28;20115;-76
2022/05/17 05:37:32;;;;;;;15.30;6.63;;;;;;;12.32;100.00;96050.53;5070509;28;20474;-76
2022/05/17 05:39:58;;;;;;;12.85;6.18;;;;;;;12.26;100.00;96058.44;5056880;28;20037;-76
2022/05/17 05:42:24;;;;;;;15.35;6.55;;;;;;;12.25;100.00;96067.41;5067804;28;20493;-76
2022/05/17 05:44:50;;;;;;;13.77;6.03;;;;;;;12.31;100.00;96065.56;5069228;28;20047;-76
2022/05/17 05:47:15;;;;;;;10.32;6.00;;;;;;;12.41;100.00;96067.41;5068788;28;20041;-76
2022/05/17 05:49:41;;;;;;;11.88;5.93;;;;;;;12.39;100.00;96066.88;5053007;28;20429;-76
2022/05/17 05:52:07;;;;;;;12.25;6.20;;;;;;;12.29;100.00;96063.19;5050513;28;20502;-76
2022/05/17 05:54:32;;;;;;;10.90;6.32;;;;;;;12.42;100.00;96066.34;5050342;28;20033;-76
2022/05/17 05:56:59;;;;;;;10.63;5.70;;;;;;;12.48;100.00;96062.63;5056122;28;20056;-77
2022/05/17 05:59:28;;;;;;;16.13;6.38;;;;;;;12.55;100.00;96071.06;5061409;28;20059;-77
2022/05/17 06:01:54;;;;;;;12.82;6.10;;;;;;;12.67;100.00;96072.63;5063262;28;20403;-76
2022/05/17 06:04:20;;;;;;;14.88;6.68;;;;;;;12.84;100.00;96078.38;5050378;28;20594;-76
2022/05/17 06:06:46;;;;;;;12.60;6.93;;;;;;;13.00;100.00;96074.63;5057742;28;20040;-76
2022/05/17 06:09:11;;;;;;;11.13;6.35;;;;;;;13.14;100.00;96066.88;5055965;28;20514;-76
2022/05/17 06:11:37;;;;;;;12.82;6.05;;;;;;;13.22;100.00;96068.19;5050015;28;20628;-76
2022/05/17 06:14:03;;;;;;;9.95;5.63;;;;;;;13.37;100.00;96069.22;5050033;28;20041;-76
2022/05/17 06:16:29;;;;;;;9.48;5.90;;;;;;;13.60;100.00;96073.81;5055370;28;20037;-76
2022/05/17 06:18:55;;;;;;;12.63;5.80;;;;;;;13.75;100.00;96072.13;5059614;28;20400;-76
2022/05/17 06:21:20;;;;;;;15.60;6.40;;;;;;;13.84;100.00;96070.50;5049707;28;20498;-76
2022/05/17 06:23:46;;;;;;;13.13;5.93;;;;;;;13.86;100.00;96071.00;5067569;28;20041;-76
2022/05/17 06:26:12;;;;;;;10.25;5.90;;;;;;;14.02;100.00;96075.13;5049913;28;20032;-76
2022/05/17 06:28:37;;;;;;;13.20;6.55;;;;;;;14.10;100.00;96072.94;5050747;28;20075;-76
2022/05/17 06:31:03;;;;;;;12.93;6.47;;;;;;;14.27;100.00;96075.97;5053750;28;20045;-76
2022/05/17 06:33:29;;;;;;;15.82;7.18;;;;;;;14.52;100.00;96066.19;5049784;28;20422;-76
2022/05/17 06:35:55;;;;;;;14.00;7.18;;;;;;;14.44;100.00;96069.44;5051005;28;20094;-76
2022/05/17 06:38:22;;;;;;;16.70;7.85;;;;;;;14.49;100.00;96066.75;5069750;28;20040;-76
2022/05/17 06:40:48;;;;;;;16.25;7.88;;;;;;;14.70;100.00;96065.50;5054945;28;20070;-77
2022/05/17 06:43:14;;;;;;;16.00;8.07;;;;;;;14.67;100.00;96062.63;5048834;28;20041;-77
2022/05/17 06:45:40;;;;;;;17.77;8.55;;;;;;;14.76;100.00;96066.22;5049511;28;20044;-76
2022/05/17 06:48:06;;;;;;;21.95;8.32;;;;;;;14.76;100.00;96060.16;5048067;28;20529;-77
2022/05/17 06:50:32;;;;;;;22.55;9.45;;;;;;;14.88;100.00;96068.47;5053751;28;20048;-76
2022/05/17 06:52:58;;;;;;;16.88;8.85;;;;;;;14.92;100.00;96064.19;5065726;28;20055;-76
2022/05/17 06:55:24;;;;;;;22.95;9.48;;;;;;;14.91;100.00;96067.91;5069522;28;20040;-76
2022/05/17 06:57:50;;;;;;;18.02;8.35;;;;;;;15.14;100.00;96060.22;5066054;28;20041;-77
2022/05/17 07:00:17;;;;;;;18.45;9.07;;;;;;;15.16;100.00;96074.00;5066200;28;20052;-76
2022/05/17 07:02:43;;;;;;;21.30;9.63;;;;;;;15.23;100.00;96074.44;5060656;28;20041;-77
2022/05/17 07:05:10;;;;;;;22.02;10.00;;;;;;;15.25;100.00;96074.94;5066438;28;20048;-77
2022/05/17 07:07:37;;;;;;;19.23;9.15;;;;;;;15.33;100.00;96069.00;5069139;28;20391;-77
2022/05/17 07:15:32;;;;;;;19.43;9.70;;;;;;;15.45;100.00;96065.13;5070195;28;20036;-77
2022/05/17 07:18:01;;;;;;;21.63;9.73;;;;;;;15.58;100.00;96064.41;5054488;28;20120;-77
2022/05/17 07:20:28;;;;;;;19.13;9.77;;;;;;;15.72;100.00;96070.56;5050521;28;20126;-78
2022/05/17 07:22:54;;;;;;;18.27;9.50;;;;;;;15.74;100.00;96063.09;5063708;28;20079;-77
2022/05/17 07:25:20;;;;;;;20.30;8.80;;;;;;;15.91;100.00;96061.81;5069803;28;20045;-77
2022/05/17 07:27:45;;;;;;;21.65;8.85;;;;;;;16.00;100.00;96069.91;5065263;28;20560;-77
2022/05/17 07:30:11;;;;;;;17.45;9.15;;;;;;;16.23;100.00;96060.25;5050021;28;20080;-77
2022/05/17 07:32:38;;;;;;;22.30;9.27;;;;;;;16.21;99.29;96067.72;5051970;28;20103;-77
2022/05/17 07:35:04;;;;;;;15.63;8.70;;;;;;;16.16;98.20;96068.59;5062867;28;20906;-77
2022/05/17 07:37:29;;;;;;;21.13;9.05;;;;;;;16.23;99.33;96081.47;5070384;28;20071;-77
2022/05/17 07:39:55;;;;;;;16.20;8.68;;;;;;;16.27;100.00;96074.50;5065119;28;20037;-77
2022/05/17 07:42:20;;;;;;;19.00;8.85;;;;;;;16.35;100.00;96071.19;5051819;28;20033;-77
2022/05/17 07:44:46;;;;;;;15.93;8.73;;;;;;;16.65;97.54;96077.03;5050273;28;20106;-77
2022/05/17 07:47:12;;;;;;;19.83;8.57;;;;;;;16.74;98.49;96067.31;5050493;28;20098;-77
2022/05/17 07:49:42;;;;;;;18.05;8.88;;;;;;;16.62;93.92;96070.44;5049237;28;20045;-77
2022/05/17 07:52:09;;;;;;;14.85;8.50;;;;;;;16.62;94.46;96066.97;5051330;28;20056;-77
2022/05/17 07:54:37;;;;;;;22.27;9.68;;;;;;;16.66;96.52;96065.31;5051421;28;20041;-77
2022/05/17 07:57:04;;;;;;;17.30;9.50;;;;;;;16.72;93.66;96064.16;5051145;28;20047;-77
2022/05/17 07:59:29;;;;;;;18.70;8.70;;;;;;;16.74;93.89;96061.97;5048980;28;20082;-77
2022/05/17 08:01:55;;;;;;;18.30;8.55;;;;;;;16.67;92.83;96060.81;5049763;28;20049;-78
2022/05/17 08:04:22;;;;;;;22.10;8.27;;;;;;;16.79;96.52;96069.88;5051651;28;20037;-77
2022/05/17 08:06:49;;;;;;;15.77;8.88;;;;;;;16.82;91.90;96057.06;5065004;28;20044;-77
2022/05/17 08:09:15;;;;;;;15.25;8.20;;;;;;;17.00;92.01;96069.50;5070667;28;20053;-77
2022/05/17 08:11:40;;;;;;;13.60;7.82;;;;;;;17.07;92.53;96069.09;5054086;28;20045;-77
2022/05/17 08:14:06;;;;;;;19.25;8.82;;;;;;;17.07;90.33;96064.56;5055144;28;20068;-78
2022/05/17 08:16:31;;;;;;;18.27;8.95;;;;;;;16.85;89.09;96061.78;5058852;28;20410;-77
2022/05/17 08:18:57;;;;;;;18.27;8.98;;;;;;;16.90;92.05;96053.75;5056867;28;20116;-77
2022/05/17 08:21:22;;;;;;;15.98;8.85;;;;;;;16.84;91.68;96054.88;5059828;28;20479;-77
2022/05/17 08:23:48;;;;;;;17.42;8.75;;;;;;;17.36;85.47;96060.00;5073854;28;20539;-77
2022/05/17 08:28:57;;;;;;;19.23;7.95;;;;;;;17.06;91.09;96048.91;5073742;28;20032;-77
2022/05/17 08:31:23;;;;;;;13.73;7.32;;;;;;;17.12;89.10;96056.50;5065146;28;20149;-77
2022/05/17 08:33:50;;;;;;;19.42;7.72;;;;;;;17.37;88.09;96061.56;5072683;28;20052;-77
2022/05/17 08:36:17;;;;;;;18.00;7.68;;;;;;;17.52;87.28;96063.09;5054956;28;20045;-77
2022/05/17 08:38:49;;;;;;;16.10;8.02;;;;;;;17.33;84.76;96060.59;5065283;28;20051;-77
2022/05/17 08:41:29;;;;;;;17.30;7.50;;;;;;;17.29;85.00;96060.41;5073040;28;20120;-77
2022/05/17 08:44:00;;;;;;;15.55;8.35;;;;;;;17.46;83.29;96065.88;5073657;28;20041;-77
2022/05/17 08:46:59;;;;;;;17.75;7.65;;;;;;;17.62;83.23;96062.88;5071553;28;20051;-77
2022/05/17 08:49:44;;;;;;;13.40;7.35;;;;;;;17.91;81.28;96067.03;5067457;28;20119;-78
2022/05/17 08:52:15;;;;;;;16.48;7.10;;;;;;;17.80;82.11;96061.94;5071984;28;20045;-77
2022/05/17 08:55:15;;;;;;;16.05;7.75;;;;;;;17.70;81.48;96064.81;5072490;28;20056;-77
2022/05/17 08:57:54;;;;;;;13.57;6.85;;;;;;;17.81;82.21;96060.03;5057898;28;20123;-77
2022/05/17 09:00:40;;;;;;;17.75;7.90;;;;;;;17.72;81.94;96057.31;5052680;28;20037;-77
2022/05/17 09:03:25;;;;;;;15.40;7.18;;;;;;;17.57;83.53;96062.97;5052057;28;20048;-77
2022/05/17 09:06:08;;;;;;;14.43;7.25;;;;;;;17.41;85.41;96063.34;5053121;28;20486;-77
2022/05/17 09:08:46;;;;;;;22.87;8.53;;;;;;;17.60;84.55;96059.75;5053940;28;20037;-77
2022/05/17 09:11:23;;;;;;;16.13;7.68;;;;;;;17.80;81.93;96056.59;5053160;28;20436;-77
2022/05/17 09:14:02;;;;;;;14.48;7.75;;;;;;;17.87;79.29;96042.06;5053306;28;20179;-77
2022/05/17 09:16:32;;;;;;;19.20;6.45;;;;;;;18.09;76.43;96055.41;5053025;28;20044;-78
2022/05/17 09:18:58;;;;;;;11.25;6.55;;;;;;;18.07;75.27;96052.25;5061944;28;20111;-77
2022/05/17 09:21:38;;;;;;;13.93;6.10;;;;;;;17.95;74.80;96044.81;5069734;28;20528;-77
2022/05/17 09:24:16;;;;;;;12.82;6.28;;;;;;;18.15;74.93;96054.19;5053167;28;20052;-77
2022/05/17 09:27:01;;;;;;;13.48;6.32;;;;;;;18.12;73.92;96052.13;5052887;28;20033;-77
2022/05/17 09:29:43;;;;;;;15.55;6.45;;;;;;;18.10;74.08;96057.00;5052667;28;20033;-77
2022/05/17 09:32:11;;;;;;;17.17;6.68;;;;;;;18.06;73.65;96040.03;5053057;28;20044;-77
2022/05/17 09:34:40;;;;;;;14.00;6.47;;;;;;;18.32;73.95;96042.84;5053007;28;20049;-77
2022/05/17 09:37:13;;;;;;;12.35;6.13;;;;;;;18.41;73.03;96050.88;5063688;28;20044;-77
2022/05/17 09:39:43;;;;;;;13.18;5.95;;;;;;;18.52;70.39;96046.88;5062537;28;20047;-77
2022/05/17 09:42:25;;;;;;;14.13;6.93;;;;;;;19.11;69.10;96045.81;5063230;28;20474;-77
2022/05/17 09:44:52;;;;;;;19.55;6.50;;;;;;;19.18;70.39;96042.72;5070024;28;20052;-77
2022/05/17 09:47:30;;;;;;;15.00;6.25;;;;;;;19.26;71.19;96041.13;5061473;28;20040;-77
2022/05/17 09:53:00;;;;;;;21.02;7.10;;;;;;;18.78;71.44;96046.19;5052539;28;20103;-78
2022/05/17 09:55:29;;;;;;;11.50;6.00;;;;;;;18.78;67.23;96038.19;5052723;28;20115;-77
2022/05/17 09:58:04;;;;;;;11.00;5.53;;;;;;;19.07;66.73;96042.22;5053811;28;20041;-77
2022/05/17 10:00:32;;;;;;;15.55;5.55;;;;;;;19.38;67.41;96033.31;5052564;28;20033;-78
2022/05/17 10:03:04;;;;;;;11.07;5.60;;;;;;;19.64;64.65;96030.66;5051368;28;20045;-78
2022/05/17 10:05:40;;;;;;;10.95;6.40;;;;;;;19.80;66.60;96033.66;5052116;28;20095;-77
2022/05/17 10:08:23;;;;;;;10.85;5.72;;;;;;;20.12;67.74;96038.78;5051042;28;20042;-77
2022/05/17 10:11:01;;;;;;;14.57;6.45;;;;;;;20.61;64.67;96036.59;5067506;28;20158;-78
2022/05/17 10:13:47;;;;;;;11.15;6.25;;;;;;;20.07;62.14;96034.41;5066169;28;20045;-77
2022/05/17 10:16:17;;;;;;;13.00;6.30;;;;;;;20.03;64.77;96036.91;5067389;28;20410;-77
2022/05/17 10:18:58;;;;;;;10.43;6.32;;;;;;;20.44;63.61;96029.41;5051454;28;20040;-77
2022/05/17 10:21:35;;;;;;;10.48;6.03;;;;;;;19.98;63.61;96033.63;5055655;28;20067;-77
2022/05/17 10:24:13;;;;;;;14.63;6.20;;;;;;;19.94;66.49;96032.69;5071941;28;20050;-77
2022/05/17 10:26:51;;;;;;;12.77;5.70;;;;;;;20.56;62.84;96032.22;5071191;28;20051;-77
2022/05/17 10:30:12;;;;;;;12.55;5.72;;;;;;;20.89;59.63;96031.63;5053037;28;20413;-78
2022/05/17 10:32:50;;;;;;;10.25;5.75;;;;;;;20.95;59.49;96024.19;5048261;28;20055;-77
2022/05/17 10:35:38;;;;;;;13.02;6.65;;;;;;;21.20;57.54;96022.44;5060271;28;20044;-77
2022/05/17 10:38:13;;;;;;;12.63;6.25;;;;;;;20.62;59.40;96024.03;5071387;28;20094;-77
2022/05/17 10:40:45;;;;;;;12.35;5.82;;;;;;;20.77;60.38;96010.13;5060384;28;20041;-77
2022/05/17 10:43:35;;;;;;;14.10;5.57;;;;;;;21.54;58.83;96015.31;5055953;28;20108;-77
2022/05/17 10:46:19;;;;;;;11.85;5.72;;;;;;;21.65;54.69;96017.59;5070049;28;20036;-78
2022/05/17 10:49:12;;;;;;;10.85;5.40;;;;;;;22.16;56.70;96012.84;5058699;28;20116;-78
2022/05/17 10:52:06;;;;;;;10.95;6.00;;;;;;;22.34;55.44;96010.00;5052090;28;20044;-78
2022/05/17 10:54:54;;;;;;;14.07;6.60;;;;;;;22.06;55.59;96013.28;5052262;28;20535;-75
2022/05/17 10:57:41;;;;;;;16.67;5.82;;;;;;;22.09;57.20;96008.03;5053076;28;20044;-75
2022/05/17 11:00:19;;;;;;;13.05;5.20;;;;;;;23.25;51.25;95995.59;5049316;28;20048;-75
2022/05/17 11:02:57;;;;;;;13.88;4.72;;;;;;;23.34;50.86;96005.06;5049508;28;20048;-77
2022/05/17 11:05:34;;;;;;;11.70;6.40;;;;;;;23.16;51.02;96004.53;5049474;28;20171;-77
2022/05/17 11:08:22;;;;;;;11.40;5.72;;;;;;;23.07;50.93;96011.13;5049665;28;20049;-77
2022/05/17 11:10:51;;;;;;;9.05;5.05;;;;;;;21.77;50.61;96001.56;5046406;28;20065;-77
2022/05/17 11:13:47;;;;;;;13.25;5.18;;;;;;;22.66;52.14;96008.38;5049861;28;20114;-77
2022/05/17 11:16:21;;;;;;;11.18;5.55;;;;;;;22.80;52.48;96005.31;5054776;28;20048;-76
2022/05/17 11:19:10;;;;;;;9.32;5.53;;;;;;;23.06;50.83;96004.19;5067652;28;20082;-77
2022/05/17 11:21:36;;;;;;;13.90;6.57;;;;;;;23.28;51.00;96001.03;5065673;28;20037;-76
2022/05/17 11:24:17;;;;;;;14.90;6.60;;;;;;;23.20;52.99;95999.28;5049146;28;20044;-76
2022/05/17 11:27:27;;;;;;;17.73;6.93;;;;;;;24.20;51.86;96005.84;5050649;28;20600;-76
2022/05/17 11:29:58;;;;;;;18.92;6.15;;;;;;;23.51;47.85;96003.22;5048563;28;20048;-76
2022/05/17 11:32:31;;;;;;;13.45;5.43;;;;;;;23.76;48.61;96003.13;5049571;28;20090;-76
2022/05/17 11:34:59;;;;;;;13.57;5.85;;;;;;;24.00;48.10;95994.97;5049464;28;20045;-76
2022/05/17 11:37:34;;;;;;;12.38;5.00;;;;;;;24.22;46.61;95995.53;5049271;28;20040;-76
2022/05/17 11:40:04;;;;;;;8.93;5.60;;;;;;;24.62;48.01;95989.22;5049834;28;20406;-76
2022/05/17 11:42:31;;;;;;;14.98;5.60;;;;;;;24.71;46.66;95992.53;5053221;28;20121;-77
2022/05/17 11:45:20;;;;;;;10.77;5.65;;;;;;;24.67;46.73;95991.66;5054343;28;20064;-77
2022/05/17 11:47:48;;;;;;;10.48;6.30;;;;;;;25.38;46.17;95991.69;5056262;28;20560;-77